createdAt,value
2023-01-20T00:01:03.828Z,100.00
2023-01-20T00:03:30.285Z,100.00
2023-01-20T00:05:56.667Z,100.00
2023-01-20T00:08:23.098Z,100.00
2023-01-20T00:10:49.466Z,100.00
2023-01-20T00:13:15.841Z,100.00
2023-01-20T00:15:42.270Z,100.00
2023-01-20T00:18:08.683Z,100.00
2023-01-20T00:20:35.320Z,100.00
2023-01-20T00:23:01.954Z,100.00
2023-01-20T00:25:28.330Z,100.00
2023-01-20T00:27:54.751Z,100.00
2023-01-20T00:30:21.890Z,100.00
2023-01-20T00:32:48.325Z,100.00
2023-01-20T00:35:15.202Z,100.00
2023-01-20T00:37:42.958Z,100.00
2023-01-20T00:40:09.899Z,100.00
2023-01-20T00:42:36.299Z,100.00
2023-01-20T00:45:02.992Z,100.00
2023-01-20T00:47:29.400Z,100.00
2023-01-20T00:49:55.739Z,100.00
2023-01-20T00:52:22.465Z,100.00
2023-01-20T00:54:48.897Z,100.00
2023-01-20T00:57:15.247Z,100.00
2023-01-20T00:59:41.587Z,100.00
2023-01-20T01:02:08.080Z,100.00
2023-01-20T01:04:34.608Z,100.00
2023-01-20T01:07:00.964Z,100.00
2023-01-20T01:09:27.405Z,100.00
2023-01-20T01:11:53.804Z,100.00
2023-01-20T01:14:20.209Z,100.00
2023-01-20T01:16:46.546Z,100.00
2023-01-20T01:19:12.994Z,100.00
2023-01-20T01:21:39.482Z,100.00
2023-01-20T01:24:06.326Z,100.00
2023-01-20T01:26:32.733Z,100.00
2023-01-20T01:28:59.283Z,100.00
2023-01-20T01:31:25.826Z,100.00
2023-01-20T01:33:52.203Z,100.00
2023-01-20T01:36:18.722Z,100.00
2023-01-20T01:38:45.163Z,100.00
2023-01-20T01:41:25.289Z,100.00
2023-01-20T01:44:09.608Z,100.00
2023-01-20T01:46:36.893Z,100.00
2023-01-20T01:49:13.949Z,100.00
2023-01-20T01:51:46.510Z,100.00
2023-01-20T01:54:17.036Z,100.00
2023-01-20T01:56:45.518Z,99.74
2023-01-20T01:59:14.062Z,99.82
2023-01-20T02:01:46.690Z,99.78
2023-01-20T02:04:15.931Z,99.87
2023-01-20T02:07:04.488Z,99.82
2023-01-20T02:09:31.483Z,100.00
2023-01-20T02:12:03.789Z,100.00
2023-01-20T02:14:35.907Z,100.00
2023-01-20T02:17:05.282Z,99.98
2023-01-20T02:19:54.942Z,100.00
2023-01-20T02:22:30.944Z,99.99
2023-01-20T02:25:15.761Z,100.00
2023-01-20T02:28:27.688Z,100.00
2023-01-20T02:31:12.948Z,100.00
2023-01-20T02:33:46.404Z,99.88
2023-01-20T02:36:27.913Z,100.00
2023-01-20T02:39:03.203Z,100.00
2023-01-20T02:41:42.029Z,100.00
2023-01-20T02:44:20.601Z,99.90
2023-01-20T02:46:53.197Z,99.58
2023-01-20T02:49:27.363Z,100.00
2023-01-20T02:52:01.801Z,100.00
2023-01-20T02:54:32.757Z,100.00
2023-01-20T02:57:02.238Z,100.00
2023-01-20T02:59:32.585Z,100.00
2023-01-20T03:02:10.984Z,100.00
2023-01-20T03:04:41.698Z,100.00
2023-01-20T03:07:11.888Z,100.00
2023-01-20T03:09:43.798Z,100.00
2023-01-20T03:12:37.678Z,99.75
2023-01-20T03:15:04.571Z,99.86
2023-01-20T03:17:32.569Z,100.00
2023-01-20T03:19:59.142Z,100.00
2023-01-20T03:22:26.503Z,100.00
2023-01-20T03:24:54.554Z,100.00
2023-01-20T03:27:20.913Z,100.00
2023-01-20T03:29:47.323Z,100.00
2023-01-20T03:32:14.870Z,100.00
2023-01-20T03:34:43.189Z,100.00
2023-01-20T03:37:12.503Z,100.00
2023-01-20T03:39:39.849Z,100.00
2023-01-20T03:42:15.864Z,100.00
2023-01-20T03:45:09.680Z,100.00
2023-01-20T03:48:00.682Z,100.00
2023-01-20T03:50:40.768Z,100.00
2023-01-20T03:53:35.305Z,100.00
2023-01-20T03:56:01.603Z,100.00
2023-01-20T03:58:32.569Z,100.00
2023-01-20T04:01:01.317Z,100.00
2023-01-20T04:03:45.993Z,100.00
2023-01-20T04:06:14.878Z,100.00
2023-01-20T04:08:47.126Z,100.00
2023-01-20T04:11:13.737Z,100.00
2023-01-20T04:13:40.251Z,100.00
2023-01-20T04:16:13.113Z,100.00
2023-01-20T04:18:46.464Z,100.00
2023-01-20T04:21:33.865Z,100.00
2023-01-20T04:24:06.724Z,100.00
2023-01-20T04:26:33.126Z,100.00
2023-01-20T04:28:59.618Z,100.00
2023-01-20T04:31:31.061Z,100.00
2023-01-20T04:33:57.833Z,100.00
2023-01-20T04:36:24.252Z,100.00
2023-01-20T04:38:50.604Z,100.00
2023-01-20T04:41:16.981Z,100.00
2023-01-20T04:43:45.195Z,100.00
2023-01-20T04:46:15.264Z,100.00
2023-01-20T04:48:43.860Z,100.00
2023-01-20T04:51:10.400Z,100.00
2023-01-20T04:53:36.739Z,100.00
2023-01-20T04:56:03.351Z,100.00
2023-01-20T04:58:29.744Z,100.00
2023-01-20T05:00:56.162Z,100.00
2023-01-20T05:03:22.504Z,100.00
2023-01-20T05:05:54.164Z,100.00
2023-01-20T05:08:20.791Z,100.00
2023-01-20T05:10:47.375Z,100.00
2023-01-20T05:13:13.781Z,100.00
2023-01-20T05:15:41.942Z,100.00
2023-01-20T05:18:08.444Z,100.00
2023-01-20T05:20:34.836Z,100.00
2023-01-20T05:23:01.588Z,100.00
2023-01-20T05:25:28.057Z,100.00
2023-01-20T05:27:54.495Z,100.00
2023-01-20T05:30:21.284Z,100.00
2023-01-20T05:32:51.848Z,100.00
2023-01-20T05:35:18.480Z,100.00
2023-01-20T05:37:45.051Z,100.00
2023-01-20T05:40:11.800Z,100.00
2023-01-20T05:42:38.221Z,100.00
2023-01-20T05:45:05.196Z,100.00
2023-01-20T05:47:46.742Z,100.00
2023-01-20T05:50:13.310Z,100.00
2023-01-20T05:52:39.776Z,100.00
2023-01-20T05:55:06.365Z,100.00
2023-01-20T05:57:32.844Z,100.00
2023-01-20T05:59:59.210Z,100.00
2023-01-20T06:02:25.650Z,100.00
2023-01-20T06:04:52.007Z,100.00
2023-01-20T06:07:18.488Z,100.00
2023-01-20T06:09:44.897Z,100.00
2023-01-20T06:12:11.328Z,100.00
2023-01-20T06:14:37.722Z,100.00
2023-01-20T06:17:04.184Z,100.00
2023-01-20T06:19:30.582Z,100.00
2023-01-20T06:21:57.062Z,100.00
2023-01-20T06:24:23.649Z,100.00
2023-01-20T06:26:51.284Z,100.00
2023-01-20T06:29:18.217Z,100.00
2023-01-20T06:31:45.565Z,100.00
2023-01-20T06:34:12.431Z,100.00
2023-01-20T06:36:39.018Z,100.00
2023-01-20T06:39:05.474Z,100.00
2023-01-20T06:41:32.074Z,100.00
2023-01-20T06:43:58.505Z,100.00
2023-01-20T06:46:25.024Z,100.00
2023-01-20T06:48:52.014Z,100.00
2023-01-20T06:51:20.294Z,100.00
2023-01-20T06:53:47.472Z,100.00
2023-01-20T06:56:15.481Z,100.00
2023-01-20T06:58:42.116Z,100.00
2023-01-20T07:01:12.784Z,100.00
2023-01-20T07:03:41.300Z,100.00
2023-01-20T07:06:15.575Z,100.00
2023-01-20T07:08:43.833Z,100.00
2023-01-20T07:11:10.336Z,100.00
2023-01-20T07:13:36.717Z,100.00
2023-01-20T07:16:03.229Z,100.00
2023-01-20T07:18:29.639Z,100.00
2023-01-20T07:20:57.067Z,100.00
2023-01-20T07:23:24.825Z,100.00
2023-01-20T07:26:22.146Z,100.00
2023-01-20T07:28:49.082Z,100.00
2023-01-20T07:31:17.882Z,100.00
2023-01-20T07:33:44.765Z,100.00
2023-01-20T07:36:13.169Z,100.00
2023-01-20T07:38:39.981Z,100.00
2023-01-20T07:41:11.567Z,100.00
2023-01-20T07:43:37.959Z,100.00
2023-01-20T07:46:05.163Z,100.00
2023-01-20T07:48:32.849Z,100.00
2023-01-20T07:51:07.835Z,100.00
2023-01-20T07:53:35.972Z,100.00
2023-01-20T07:56:05.177Z,100.00
2023-01-20T07:58:32.350Z,100.00
2023-01-20T08:01:10.273Z,100.00
2023-01-20T08:03:37.374Z,100.00
2023-01-20T08:06:09.059Z,100.00
2023-01-20T08:08:36.370Z,100.00
2023-01-20T08:11:03.673Z,100.00
2023-01-20T08:13:31.560Z,100.00
2023-01-20T08:16:06.795Z,100.00
2023-01-20T08:18:33.916Z,100.00
2023-01-20T08:21:00.332Z,100.00
2023-01-20T08:23:26.672Z,100.00
2023-01-20T08:26:01.947Z,100.00
2023-01-20T08:28:29.371Z,100.00
2023-01-20T08:31:02.390Z,100.00
2023-01-20T08:33:28.924Z,100.00
2023-01-20T08:35:56.698Z,100.00
2023-01-20T08:38:23.051Z,100.00
2023-01-20T08:40:49.488Z,100.00
2023-01-20T08:43:15.894Z,100.00
2023-01-20T08:45:43.625Z,100.00
2023-01-20T08:48:10.425Z,100.00
2023-01-20T08:50:36.857Z,100.00
2023-01-20T08:53:03.447Z,100.00
2023-01-20T08:55:31.185Z,100.00
2023-01-20T08:57:57.593Z,100.00
2023-01-20T09:00:24.230Z,100.00
2023-01-20T09:02:50.800Z,100.00
2023-01-20T09:05:17.566Z,100.00
2023-01-20T09:07:45.158Z,100.00
2023-01-20T09:10:12.307Z,100.00
2023-01-20T09:12:39.512Z,100.00
2023-01-20T09:15:07.566Z,100.00
2023-01-20T09:17:37.026Z,100.00
2023-01-20T09:20:03.599Z,100.00
2023-01-20T09:22:30.000Z,100.00
2023-01-20T09:24:56.408Z,100.00
2023-01-20T09:27:23.333Z,100.00
2023-01-20T09:29:49.731Z,100.00
2023-01-20T09:32:16.117Z,100.00
2023-01-20T09:34:42.574Z,100.00
2023-01-20T09:37:27.457Z,100.00
2023-01-20T09:40:12.648Z,100.00
2023-01-20T09:43:34.843Z,100.00
2023-01-20T09:46:08.885Z,100.00
2023-01-20T09:49:02.177Z,100.00
2023-01-20T09:52:00.029Z,100.00
2023-01-20T09:54:33.815Z,100.00
2023-01-20T09:57:02.066Z,100.00
2023-01-20T09:59:38.852Z,100.00
2023-01-20T10:02:13.401Z,100.00
2023-01-20T10:04:48.406Z,100.00
2023-01-20T10:07:20.670Z,100.00
2023-01-20T10:10:00.142Z,100.00
2023-01-20T10:12:36.485Z,100.00
2023-01-20T10:15:13.589Z,100.00
2023-01-20T10:17:47.599Z,99.93
2023-01-20T10:20:35.408Z,100.00
2023-01-20T10:23:14.178Z,99.40
2023-01-20T10:25:58.802Z,99.27
2023-01-20T10:28:32.198Z,99.07
2023-01-20T10:31:03.131Z,98.97
2023-01-20T10:33:39.447Z,98.46
2023-01-20T10:36:13.780Z,99.07
2023-01-20T10:39:09.858Z,98.23
2023-01-20T10:41:38.653Z,96.94
2023-01-20T10:44:14.635Z,95.87
2023-01-20T10:46:59.681Z,96.13
2023-01-20T10:49:37.356Z,95.27
2023-01-20T10:52:24.692Z,95.46
2023-01-20T10:55:13.249Z,94.27
2023-01-20T10:57:39.790Z,92.01
2023-01-20T11:00:20.403Z,90.79
2023-01-20T11:02:49.232Z,90.53
2023-01-20T11:05:25.873Z,90.14
2023-01-20T11:07:54.539Z,90.25
2023-01-20T11:10:27.256Z,90.67
2023-01-20T11:12:57.230Z,89.75
2023-01-20T11:15:28.300Z,88.14
2023-01-20T11:18:16.770Z,88.75
2023-01-20T11:20:55.455Z,89.40
2023-01-20T11:23:23.791Z,90.34
2023-01-20T11:25:57.947Z,89.48
2023-01-20T11:28:25.093Z,89.22
2023-01-20T11:30:56.765Z,88.40
2023-01-20T11:33:26.449Z,87.20
2023-01-20T11:36:02.262Z,87.78
2023-01-20T11:38:41.950Z,87.61
2023-01-20T11:41:18.340Z,87.70
2023-01-20T11:43:44.736Z,86.52
2023-01-20T11:46:26.224Z,86.84
2023-01-20T11:49:19.765Z,87.94
2023-01-20T11:51:49.153Z,87.04
2023-01-20T11:54:37.421Z,86.69
2023-01-20T11:57:07.562Z,86.82
2023-01-20T11:59:36.372Z,87.10
2023-01-20T12:02:08.844Z,86.94
2023-01-20T12:05:02.153Z,86.51
2023-01-20T12:07:42.954Z,87.23
2023-01-20T12:10:26.267Z,86.85
2023-01-20T12:13:18.111Z,87.54
2023-01-20T12:15:52.894Z,86.92
2023-01-20T12:18:32.320Z,88.18
2023-01-20T12:21:18.388Z,88.07
2023-01-20T12:24:02.884Z,87.70
2023-01-20T12:26:29.598Z,87.13
2023-01-20T12:28:58.322Z,87.36
2023-01-20T12:31:25.288Z,87.09
2023-01-20T12:33:59.339Z,86.18
2023-01-20T12:36:44.499Z,86.35
2023-01-20T12:39:44.774Z,86.14
2023-01-20T12:42:29.781Z,85.15
2023-01-20T12:45:03.157Z,86.22
2023-01-20T12:47:47.772Z,85.43
2023-01-20T12:50:54.144Z,86.19
2023-01-20T12:53:39.216Z,85.58
2023-01-20T12:56:16.164Z,85.14
2023-01-20T12:59:04.469Z,84.70
2023-01-20T13:01:42.633Z,85.31
2023-01-20T13:04:30.690Z,85.18
2023-01-20T13:07:34.705Z,85.17
2023-01-20T13:10:33.437Z,85.06
2023-01-20T13:13:18.179Z,85.64
2023-01-20T13:16:06.784Z,85.16
2023-01-20T13:18:51.381Z,84.79
2023-01-20T13:21:21.038Z,85.29
2023-01-20T13:23:50.382Z,85.60
2023-01-20T13:26:17.447Z,84.47
2023-01-20T13:28:52.386Z,84.24
2023-01-20T13:31:46.038Z,83.46
2023-01-20T13:34:21.253Z,84.25
2023-01-20T13:37:03.317Z,85.38
2023-01-20T13:39:29.841Z,83.46
2023-01-20T13:41:56.621Z,83.74
2023-01-20T13:44:35.339Z,83.72
2023-01-20T13:47:02.837Z,84.95
2023-01-20T13:49:46.726Z,84.19
2023-01-20T13:52:13.251Z,84.78
2023-01-20T13:54:44.825Z,85.37
2023-01-20T13:57:20.417Z,85.31
2023-01-20T13:59:46.956Z,85.65
2023-01-20T14:02:24.775Z,86.06
2023-01-20T14:04:52.520Z,86.47
2023-01-20T14:07:30.493Z,87.29
2023-01-20T14:09:59.365Z,85.11
2023-01-20T14:12:26.572Z,85.67
2023-01-20T14:14:53.481Z,86.64
2023-01-20T14:17:23.544Z,86.61
2023-01-20T14:19:55.361Z,86.45
2023-01-20T14:22:27.226Z,87.10
2023-01-20T14:24:57.253Z,86.88
2023-01-20T14:27:31.312Z,87.52
2023-01-20T14:30:14.358Z,86.55
2023-01-20T14:32:41.446Z,87.44
2023-01-20T14:35:20.994Z,87.89
2023-01-20T14:37:50.654Z,87.76
2023-01-20T14:40:25.127Z,88.54
2023-01-20T14:42:56.779Z,87.32
2023-01-20T14:45:27.923Z,86.69
2023-01-20T14:47:55.369Z,87.29
2023-01-20T14:50:22.102Z,88.60
2023-01-20T14:52:48.848Z,87.28
2023-01-20T14:55:35.970Z,87.68
2023-01-20T14:58:32.025Z,87.70
2023-01-20T15:01:02.739Z,89.38
2023-01-20T15:03:30.243Z,89.04
2023-01-20T15:06:07.051Z,89.75
2023-01-20T15:08:33.365Z,89.09
2023-01-20T15:11:16.457Z,89.60
2023-01-20T15:14:09.988Z,88.79
2023-01-20T15:16:36.326Z,89.06
2023-01-20T15:19:18.495Z,89.62
2023-01-20T15:21:47.942Z,89.99
2023-01-20T15:24:17.398Z,90.27
2023-01-20T15:26:45.373Z,90.83
2023-01-20T15:29:29.166Z,91.45
2023-01-20T15:31:58.117Z,91.95
2023-01-20T15:34:26.053Z,91.55
2023-01-20T15:36:53.582Z,91.80
2023-01-20T15:39:22.402Z,92.41
2023-01-20T15:41:55.231Z,94.97
2023-01-20T15:44:22.392Z,97.62
2023-01-20T15:46:48.832Z,100.00
2023-01-20T15:49:17.039Z,100.00
2023-01-20T15:51:44.880Z,100.00
2023-01-20T15:54:13.514Z,100.00
2023-01-20T15:56:42.165Z,100.00
2023-01-20T15:59:13.522Z,100.00
2023-01-20T16:01:40.029Z,100.00
2023-01-20T16:04:06.507Z,100.00
2023-01-20T16:06:34.086Z,100.00
2023-01-20T16:09:01.819Z,100.00
2023-01-20T16:11:28.232Z,100.00
2023-01-20T16:13:54.595Z,100.00
2023-01-20T16:16:23.594Z,100.00
2023-01-20T16:18:50.277Z,100.00
2023-01-20T16:21:19.034Z,100.00
2023-01-20T16:23:45.633Z,100.00
2023-01-20T16:26:20.357Z,100.00
2023-01-20T16:28:46.720Z,100.00
2023-01-20T16:31:13.534Z,100.00
2023-01-20T16:33:39.999Z,100.00
2023-01-20T16:36:13.066Z,100.00
2023-01-20T16:38:39.634Z,100.00
2023-01-20T16:41:20.681Z,100.00
2023-01-20T16:43:47.409Z,100.00
2023-01-20T16:46:22.563Z,100.00
2023-01-20T16:48:49.425Z,100.00
2023-01-20T16:51:21.925Z,100.00
2023-01-20T16:53:49.229Z,100.00
2023-01-20T16:56:21.783Z,100.00
2023-01-20T16:58:49.892Z,100.00
2023-01-20T17:01:21.050Z,100.00
2023-01-20T17:03:48.090Z,100.00
2023-01-20T17:06:17.810Z,100.00
2023-01-20T17:08:45.959Z,100.00
2023-01-20T17:11:24.938Z,100.00
2023-01-20T17:13:51.792Z,100.00
2023-01-20T17:16:19.268Z,100.00
2023-01-20T17:18:50.194Z,100.00
2023-01-20T17:21:19.555Z,100.00
2023-01-20T17:23:51.203Z,100.00
2023-01-20T17:26:18.272Z,100.00
2023-01-20T17:28:44.960Z,100.00
2023-01-20T17:31:11.784Z,100.00
2023-01-20T17:33:38.551Z,100.00
2023-01-20T17:36:06.246Z,100.00
2023-01-20T17:38:34.526Z,100.00
2023-01-20T17:41:04.760Z,100.00
2023-01-20T17:43:32.784Z,100.00
2023-01-20T17:45:59.796Z,100.00
2023-01-20T17:48:26.705Z,100.00
2023-01-20T17:50:58.930Z,100.00
2023-01-20T17:53:26.593Z,100.00
2023-01-20T17:56:03.093Z,100.00
2023-01-20T17:58:37.705Z,100.00
2023-01-20T18:01:16.606Z,100.00
2023-01-20T18:03:43.913Z,100.00
2023-01-20T18:06:12.162Z,100.00
2023-01-20T18:08:39.023Z,100.00
2023-01-20T18:11:08.357Z,100.00
2023-01-20T18:13:35.488Z,100.00
2023-01-20T18:16:13.142Z,100.00
2023-01-20T18:18:40.500Z,100.00
2023-01-20T18:21:13.489Z,100.00
2023-01-20T18:23:40.667Z,100.00
2023-01-20T18:26:08.617Z,100.00
2023-01-20T18:28:35.778Z,100.00
2023-01-20T18:31:08.361Z,100.00
2023-01-20T18:33:47.539Z,100.00
2023-01-20T18:36:23.464Z,100.00
2023-01-20T18:38:55.171Z,100.00
2023-01-20T18:41:22.039Z,100.00
2023-01-20T18:43:49.066Z,100.00
2023-01-20T18:46:16.324Z,100.00
2023-01-20T18:48:47.293Z,100.00
2023-01-20T18:51:15.901Z,100.00
2023-01-20T18:53:44.593Z,100.00
2023-01-20T18:56:14.156Z,100.00
2023-01-20T18:58:45.606Z,100.00
2023-01-20T19:01:14.476Z,100.00
2023-01-20T19:03:41.138Z,100.00
2023-01-20T19:06:12.040Z,100.00
2023-01-20T19:08:40.088Z,100.00
2023-01-20T19:11:10.026Z,100.00
2023-01-20T19:13:36.523Z,100.00
2023-01-20T19:16:03.009Z,100.00
2023-01-20T19:18:29.609Z,100.00
2023-01-20T19:20:56.169Z,100.00
2023-01-20T19:23:22.602Z,100.00
2023-01-20T19:25:59.396Z,100.00
2023-01-20T19:28:25.790Z,100.00
2023-01-20T19:30:52.234Z,100.00
2023-01-20T19:33:18.643Z,100.00
2023-01-20T19:35:44.985Z,100.00
2023-01-20T19:38:11.333Z,100.00
2023-01-20T19:40:39.187Z,100.00
2023-01-20T19:43:05.606Z,100.00
2023-01-20T19:45:45.498Z,100.00
2023-01-20T19:48:12.411Z,100.00
2023-01-20T19:50:38.825Z,100.00
2023-01-20T19:53:05.302Z,100.00
2023-01-20T19:55:31.939Z,100.00
2023-01-20T19:57:58.278Z,100.00
2023-01-20T20:00:24.804Z,100.00
2023-01-20T20:02:54.414Z,100.00
2023-01-20T20:05:20.850Z,100.00
2023-01-20T20:07:47.305Z,100.00
2023-01-20T20:10:13.991Z,100.00
2023-01-20T20:12:40.585Z,100.00
2023-01-20T20:15:07.301Z,100.00
2023-01-20T20:17:33.662Z,100.00
2023-01-20T20:20:00.040Z,100.00
2023-01-20T20:22:26.618Z,100.00
2023-01-20T20:24:52.997Z,100.00
2023-01-20T20:27:19.347Z,100.00
2023-01-20T20:29:45.741Z,100.00
2023-01-20T20:32:12.191Z,100.00
2023-01-20T20:34:38.659Z,100.00
2023-01-20T20:37:05.107Z,100.00
2023-01-20T20:39:31.473Z,100.00
2023-01-20T20:41:57.932Z,100.00
2023-01-20T20:44:24.318Z,100.00
2023-01-20T20:46:50.767Z,100.00
2023-01-20T20:49:17.865Z,100.00
2023-01-20T20:51:44.801Z,100.00
2023-01-20T20:54:13.906Z,100.00
2023-01-20T20:56:40.473Z,100.00
2023-01-20T20:59:06.854Z,100.00
2023-01-20T21:01:34.338Z,100.00
2023-01-20T21:04:02.071Z,100.00
2023-01-20T21:06:29.574Z,100.00
2023-01-20T21:08:56.465Z,100.00
2023-01-20T21:11:24.068Z,100.00
2023-01-20T21:13:50.550Z,100.00
2023-01-20T21:16:20.793Z,100.00
2023-01-20T21:18:48.276Z,100.00
2023-01-20T21:21:19.368Z,100.00
2023-01-20T21:23:50.770Z,100.00
2023-01-20T21:26:17.207Z,100.00
2023-01-20T21:28:44.377Z,100.00
2023-01-20T21:31:15.706Z,100.00
2023-01-20T21:33:45.706Z,100.00
2023-01-20T21:36:13.006Z,100.00
2023-01-20T21:38:42.898Z,100.00
2023-01-20T21:41:10.426Z,100.00
2023-01-20T21:43:58.947Z,100.00
2023-01-20T21:46:27.969Z,100.00
2023-01-20T21:49:13.163Z,100.00
2023-01-20T21:51:57.783Z,100.00
2023-01-20T21:54:31.051Z,100.00
2023-01-20T21:56:58.653Z,100.00
2023-01-20T21:59:25.409Z,100.00
2023-01-20T22:01:52.375Z,100.00
2023-01-20T22:04:19.178Z,100.00
2023-01-20T22:06:45.906Z,100.00
2023-01-20T22:09:12.682Z,100.00
2023-01-20T22:11:39.124Z,100.00
2023-01-20T22:14:05.670Z,100.00
2023-01-20T22:16:32.305Z,100.00
2023-01-20T22:18:58.695Z,100.00
2023-01-20T22:21:25.561Z,100.00
2023-01-20T22:23:53.500Z,100.00
2023-01-20T22:26:20.135Z,100.00
2023-01-20T22:28:46.661Z,100.00
2023-01-20T22:31:17.658Z,100.00
2023-01-20T22:33:44.117Z,100.00
2023-01-20T22:36:10.579Z,100.00
2023-01-20T22:38:36.927Z,100.00
2023-01-20T22:41:08.374Z,100.00
2023-01-20T22:43:35.358Z,100.00
2023-01-20T22:46:02.959Z,100.00
2023-01-20T22:48:31.729Z,100.00
2023-01-20T22:51:13.041Z,100.00
2023-01-20T22:53:39.983Z,100.00
2023-01-20T22:56:09.696Z,100.00
2023-01-20T22:58:37.114Z,100.00
2023-01-20T23:01:03.689Z,100.00
2023-01-20T23:03:30.189Z,100.00
2023-01-20T23:05:59.868Z,100.00
2023-01-20T23:08:28.390Z,100.00
2023-01-20T23:11:01.637Z,100.00
2023-01-20T23:13:31.140Z,100.00
2023-01-20T23:15:57.846Z,100.00
2023-01-20T23:18:25.114Z,100.00
2023-01-20T23:20:53.337Z,100.00
2023-01-20T23:23:21.550Z,100.00
2023-01-20T23:25:47.929Z,100.00
2023-01-20T23:28:14.614Z,100.00
2023-01-20T23:30:41.078Z,100.00
2023-01-20T23:33:08.358Z,100.00
2023-01-20T23:35:38.791Z,100.00
2023-01-20T23:38:07.043Z,100.00
2023-01-20T23:40:34.744Z,100.00
2023-01-20T23:43:01.773Z,100.00
2023-01-20T23:45:28.791Z,100.00
2023-01-20T23:47:55.515Z,100.00
2023-01-20T23:50:21.944Z,100.00
2023-01-20T23:52:48.354Z,100.00
2023-01-20T23:55:14.771Z,100.00
2023-01-20T23:57:41.166Z,100.00
